sensor_id;sensor_type;location;lat;lon;timestamp;temperature;humidity
71047;SHT31;58703;48.978;8.982;2022-09-09T00:05:04;12.42;94.22
71047;SHT31;58703;48.978;8.982;2022-09-09T00:07:37;12.46;94.54
71047;SHT31;58703;48.978;8.982;2022-09-09T00:10:33;12.58;94.43
71047;SHT31;58703;48.978;8.982;2022-09-09T00:16:03;13.02;92.66
71047;SHT31;58703;48.978;8.982;2022-09-09T00:21:11;13.19;91.79
71047;SHT31;58703;48.978;8.982;2022-09-09T00:23:39;13.19;91.76
71047;SHT31;58703;48.978;8.982;2022-09-09T00:29:01;13.17;91.44
71047;SHT31;58703;48.978;8.982;2022-09-09T00:31:30;13.16;91.50
71047;SHT31;58703;48.978;8.982;2022-09-09T00:34:11;13.14;91.31
71047;SHT31;58703;48.978;8.982;2022-09-09T00:36:39;13.03;92.01
71047;SHT31;58703;48.978;8.982;2022-09-09T00:39:05;12.99;92.57
71047;SHT31;58703;48.978;8.982;2022-09-09T00:44:27;13.28;91.54
71047;SHT31;58703;48.978;8.982;2022-09-09T00:53:08;13.20;91.62
71047;SHT31;58703;48.978;8.982;2022-09-09T00:58:20;13.09;92.14
71047;SHT31;58703;48.978;8.982;2022-09-09T01:01:05;13.04;92.81
71047;SHT31;58703;48.978;8.982;2022-09-09T01:03:56;13.07;92.44
71047;SHT31;58703;48.978;8.982;2022-09-09T01:06:36;13.16;92.51
71047;SHT31;58703;48.978;8.982;2022-09-09T01:12:11;13.19;92.44
71047;SHT31;58703;48.978;8.982;2022-09-09T01:14:45;13.24;92.18
71047;SHT31;58703;48.978;8.982;2022-09-09T01:17:18;13.19;92.42
71047;SHT31;58703;48.978;8.982;2022-09-09T01:19:49;13.16;92.80
71047;SHT31;58703;48.978;8.982;2022-09-09T01:22:29;13.17;93.03
71047;SHT31;58703;48.978;8.982;2022-09-09T01:27:58;13.30;93.14
71047;SHT31;58703;48.978;8.982;2022-09-09T01:30:26;13.36;92.60
71047;SHT31;58703;48.978;8.982;2022-09-09T01:32:57;13.28;92.35
71047;SHT31;58703;48.978;8.982;2022-09-09T01:37:57;13.04;94.25
71047;SHT31;58703;48.978;8.982;2022-09-09T01:40:26;13.00;94.43
71047;SHT31;58703;48.978;8.982;2022-09-09T01:42:53;12.99;94.55
71047;SHT31;58703;48.978;8.982;2022-09-09T01:45:19;13.06;94.23
71047;SHT31;58703;48.978;8.982;2022-09-09T01:47:45;13.14;93.92
71047;SHT31;58703;48.978;8.982;2022-09-09T01:50:14;13.26;93.79
71047;SHT31;58703;48.978;8.982;2022-09-09T01:52:40;13.28;93.50
71047;SHT31;58703;48.978;8.982;2022-09-09T01:55:07;13.23;93.69
71047;SHT31;58703;48.978;8.982;2022-09-09T02:00:10;13.11;94.96
71047;SHT31;58703;48.978;8.982;2022-09-09T02:03:20;13.13;95.19
71047;SHT31;58703;48.978;8.982;2022-09-09T02:05:55;13.28;95.54
71047;SHT31;58703;48.978;8.982;2022-09-09T02:08:28;13.40;95.34
71047;SHT31;58703;48.978;8.982;2022-09-09T02:13:37;13.36;95.63
71047;SHT31;58703;48.978;8.982;2022-09-09T02:16:19;13.28;96.53
71047;SHT31;58703;48.978;8.982;2022-09-09T02:21:17;13.23;96.93
71047;SHT31;58703;48.978;8.982;2022-09-09T02:23:43;13.07;97.00
71047;SHT31;58703;48.978;8.982;2022-09-09T02:26:12;12.95;96.78
71047;SHT31;58703;48.978;8.982;2022-09-09T02:28:45;12.97;97.09
71047;SHT31;58703;48.978;8.982;2022-09-09T02:31:12;12.99;96.55
71047;SHT31;58703;48.978;8.982;2022-09-09T02:33:56;13.02;96.72
71047;SHT31;58703;48.978;8.982;2022-09-09T02:36:24;13.09;96.61
71047;SHT31;58703;48.978;8.982;2022-09-09T02:38:51;13.11;96.88
71047;SHT31;58703;48.978;8.982;2022-09-09T02:41:32;13.07;96.81
71047;SHT31;58703;48.978;8.982;2022-09-09T02:43:59;13.03;97.08
71047;SHT31;58703;48.978;8.982;2022-09-09T02:49:20;13.03;96.82
71047;SHT31;58703;48.978;8.982;2022-09-09T02:51:55;13.06;97.00
71047;SHT31;58703;48.978;8.982;2022-09-09T02:54:36;13.03;97.50
71047;SHT31;58703;48.978;8.982;2022-09-09T02:59:37;12.83;96.90
71047;SHT31;58703;48.978;8.982;2022-09-09T03:02:03;12.76;97.52
71047;SHT31;58703;48.978;8.982;2022-09-09T03:04:29;12.69;97.45
71047;SHT31;58703;48.978;8.982;2022-09-09T03:06:55;12.56;97.78
71047;SHT31;58703;48.978;8.982;2022-09-09T03:09:21;12.49;97.92
71047;SHT31;58703;48.978;8.982;2022-09-09T03:11:46;12.41;98.03
71047;SHT31;58703;48.978;8.982;2022-09-09T03:14:12;12.46;98.68
71047;SHT31;58703;48.978;8.982;2022-09-09T03:16:37;12.55;98.66
71047;SHT31;58703;48.978;8.982;2022-09-09T03:19:03;12.60;98.64
71047;SHT31;58703;48.978;8.982;2022-09-09T03:21:29;12.66;98.78
71047;SHT31;58703;48.978;8.982;2022-09-09T03:23:54;12.69;98.40
71047;SHT31;58703;48.978;8.982;2022-09-09T03:26:21;12.76;98.25
71047;SHT31;58703;48.978;8.982;2022-09-09T03:28:46;12.66;98.50
71047;SHT31;58703;48.978;8.982;2022-09-09T03:31:12;12.68;99.14
71047;SHT31;58703;48.978;8.982;2022-09-09T03:33:37;12.69;99.18
71047;SHT31;58703;48.978;8.982;2022-09-09T03:36:04;12.69;99.17
71047;SHT31;58703;48.978;8.982;2022-09-09T03:38:30;12.69;99.28
71047;SHT31;58703;48.978;8.982;2022-09-09T03:40:56;12.79;99.18
71047;SHT31;58703;48.978;8.982;2022-09-09T03:43:26;12.92;99.12
71047;SHT31;58703;48.978;8.982;2022-09-09T03:45:52;12.93;98.89
71047;SHT31;58703;48.978;8.982;2022-09-09T03:48:18;12.92;98.68
71047;SHT31;58703;48.978;8.982;2022-09-09T03:50:49;12.89;98.73
71047;SHT31;58703;48.978;8.982;2022-09-09T03:53:17;12.76;98.61
71047;SHT31;58703;48.978;8.982;2022-09-09T03:55:49;12.63;98.71
71047;SHT31;58703;48.978;8.982;2022-09-09T03:58:16;12.53;98.99
71047;SHT31;58703;48.978;8.982;2022-09-09T04:00:52;12.53;99.36
71047;SHT31;58703;48.978;8.982;2022-09-09T04:03:18;12.42;99.31
71047;SHT31;58703;48.978;8.982;2022-09-09T04:05:43;12.39;99.36
71047;SHT31;58703;48.978;8.982;2022-09-09T04:08:09;12.32;99.54
71047;SHT31;58703;48.978;8.982;2022-09-09T04:10:35;12.28;99.78
71047;SHT31;58703;48.978;8.982;2022-09-09T04:13:04;12.41;99.76
71047;SHT31;58703;48.978;8.982;2022-09-09T04:15:30;12.52;99.48
71047;SHT31;58703;48.978;8.982;2022-09-09T04:17:56;12.65;99.11
71047;SHT31;58703;48.978;8.982;2022-09-09T04:20:21;12.68;98.91
71047;SHT31;58703;48.978;8.982;2022-09-09T04:22:47;12.73;98.74
71047;SHT31;58703;48.978;8.982;2022-09-09T04:25:13;12.79;98.54
71047;SHT31;58703;48.978;8.982;2022-09-09T04:27:40;12.79;98.46
71047;SHT31;58703;48.978;8.982;2022-09-09T04:30:06;12.86;98.39
71047;SHT31;58703;48.978;8.982;2022-09-09T04:32:33;12.80;98.61
71047;SHT31;58703;48.978;8.982;2022-09-09T04:34:59;12.75;98.84
71047;SHT31;58703;48.978;8.982;2022-09-09T04:37:24;12.79;98.97
71047;SHT31;58703;48.978;8.982;2022-09-09T04:39:50;12.86;99.07
71047;SHT31;58703;48.978;8.982;2022-09-09T04:42:15;12.76;98.86
71047;SHT31;58703;48.978;8.982;2022-09-09T04:44:43;12.70;98.95
71047;SHT31;58703;48.978;8.982;2022-09-09T04:47:09;12.77;99.14
71047;SHT31;58703;48.978;8.982;2022-09-09T04:49:35;12.90;98.89
71047;SHT31;58703;48.978;8.982;2022-09-09T04:52:03;12.92;98.87
71047;SHT31;58703;48.978;8.982;2022-09-09T04:54:29;12.83;98.47
71047;SHT31;58703;48.978;8.982;2022-09-09T04:56:55;12.65;98.68
71047;SHT31;58703;48.978;8.982;2022-09-09T04:59:21;12.56;99.24
71047;SHT31;58703;48.978;8.982;2022-09-09T05:01:47;12.68;99.68
71047;SHT31;58703;48.978;8.982;2022-09-09T05:04:13;12.76;99.75
71047;SHT31;58703;48.978;8.982;2022-09-09T05:06:40;12.72;99.63
71047;SHT31;58703;48.978;8.982;2022-09-09T05:09:08;12.70;99.36
71047;SHT31;58703;48.978;8.982;2022-09-09T05:11:34;12.66;99.74
71047;SHT31;58703;48.978;8.982;2022-09-09T05:14:04;12.73;99.84
71047;SHT31;58703;48.978;8.982;2022-09-09T05:16:30;12.80;99.88
71047;SHT31;58703;48.978;8.982;2022-09-09T05:18:56;13.02;99.83
71047;SHT31;58703;48.978;8.982;2022-09-09T05:21:23;13.07;99.53
71047;SHT31;58703;48.978;8.982;2022-09-09T05:23:52;13.10;99.33
71047;SHT31;58703;48.978;8.982;2022-09-09T05:26:20;13.04;99.27
71047;SHT31;58703;48.978;8.982;2022-09-09T05:28:46;13.03;98.88
71047;SHT31;58703;48.978;8.982;2022-09-09T05:31:14;13.00;98.50
71047;SHT31;58703;48.978;8.982;2022-09-09T05:33:41;13.04;98.73
71047;SHT31;58703;48.978;8.982;2022-09-09T05:36:10;13.21;98.74
71047;SHT31;58703;48.978;8.982;2022-09-09T05:38:39;13.30;98.74
71047;SHT31;58703;48.978;8.982;2022-09-09T05:41:06;13.51;98.81
71047;SHT31;58703;48.978;8.982;2022-09-09T05:43:32;13.60;98.37
71047;SHT31;58703;48.978;8.982;2022-09-09T05:46:09;13.72;98.49
71047;SHT31;58703;48.978;8.982;2022-09-09T05:48:41;13.85;97.90
71047;SHT31;58703;48.978;8.982;2022-09-09T05:51:09;13.86;97.36
71047;SHT31;58703;48.978;8.982;2022-09-09T05:53:37;14.09;96.29
71047;SHT31;58703;48.978;8.982;2022-09-09T05:56:13;14.13;95.95
71047;SHT31;58703;48.978;8.982;2022-09-09T05:58:44;14.26;95.21
71047;SHT31;58703;48.978;8.982;2022-09-09T06:01:18;14.28;94.68
71047;SHT31;58703;48.978;8.982;2022-09-09T06:03:45;14.32;94.52
71047;SHT31;58703;48.978;8.982;2022-09-09T06:06:14;14.40;94.37
71047;SHT31;58703;48.978;8.982;2022-09-09T06:08:42;14.43;94.00
71047;SHT31;58703;48.978;8.982;2022-09-09T06:11:18;14.40;94.24
71047;SHT31;58703;48.978;8.982;2022-09-09T06:13:46;14.36;93.81
71047;SHT31;58703;48.978;8.982;2022-09-09T06:16:18;14.39;94.38
71047;SHT31;58703;48.978;8.982;2022-09-09T06:18:54;14.39;94.40
71047;SHT31;58703;48.978;8.982;2022-09-09T06:23:56;14.57;93.77
71047;SHT31;58703;48.978;8.982;2022-09-09T06:26:32;14.50;94.67
71047;SHT31;58703;48.978;8.982;2022-09-09T06:29:07;14.49;94.74
71047;SHT31;58703;48.978;8.982;2022-09-09T06:31:35;14.69;94.16
71047;SHT31;58703;48.978;8.982;2022-09-09T06:34:05;14.77;93.61
71047;SHT31;58703;48.978;8.982;2022-09-09T06:36:33;14.76;93.40
71047;SHT31;58703;48.978;8.982;2022-09-09T06:39:00;14.77;93.39
71047;SHT31;58703;48.978;8.982;2022-09-09T06:41:27;14.90;92.96
71047;SHT31;58703;48.978;8.982;2022-09-09T06:43:53;15.03;92.51
71047;SHT31;58703;48.978;8.982;2022-09-09T06:46:22;15.30;91.71
71047;SHT31;58703;48.978;8.982;2022-09-09T06:48:48;15.55;90.67
71047;SHT31;58703;48.978;8.982;2022-09-09T06:51:19;15.83;89.98
71047;SHT31;58703;48.978;8.982;2022-09-09T06:53:47;16.02;89.04
71047;SHT31;58703;48.978;8.982;2022-09-09T06:56:20;16.20;87.99
71047;SHT31;58703;48.978;8.982;2022-09-09T06:58:49;16.36;88.36
71047;SHT31;58703;48.978;8.982;2022-09-09T07:01:24;16.47;86.99
71047;SHT31;58703;48.978;8.982;2022-09-09T07:03:51;16.34;88.12
71047;SHT31;58703;48.978;8.982;2022-09-09T07:06:22;16.30;89.73
71047;SHT31;58703;48.978;8.982;2022-09-09T07:08:53;16.31;89.61
71047;SHT31;58703;48.978;8.982;2022-09-09T07:11:20;16.41;89.67
71047;SHT31;58703;48.978;8.982;2022-09-09T07:13:47;16.63;87.82
71047;SHT31;58703;48.978;8.982;2022-09-09T07:16:15;16.85;87.31
71047;SHT31;58703;48.978;8.982;2022-09-09T07:18:41;17.05;86.23
71047;SHT31;58703;48.978;8.982;2022-09-09T07:21:09;17.25;85.98
71047;SHT31;58703;48.978;8.982;2022-09-09T07:23:35;17.36;83.51
71047;SHT31;58703;48.978;8.982;2022-09-09T07:26:02;17.42;83.21
71047;SHT31;58703;48.978;8.982;2022-09-09T07:28:28;17.80;80.86
71047;SHT31;58703;48.978;8.982;2022-09-09T07:30:57;18.18;78.42
71047;SHT31;58703;48.978;8.982;2022-09-09T07:33:24;18.44;78.81
71047;SHT31;58703;48.978;8.982;2022-09-09T07:35:51;18.55;77.23
71047;SHT31;58703;48.978;8.982;2022-09-09T07:38:17;18.55;77.33
71047;SHT31;58703;48.978;8.982;2022-09-09T07:40:44;18.68;76.30
71047;SHT31;58703;48.978;8.982;2022-09-09T07:43:10;19.07;74.14
71047;SHT31;58703;48.978;8.982;2022-09-09T07:45:36;18.92;74.53
71047;SHT31;58703;48.978;8.982;2022-09-09T07:48:02;18.89;73.54
71047;SHT31;58703;48.978;8.982;2022-09-09T07:50:28;18.71;73.92
71047;SHT31;58703;48.978;8.982;2022-09-09T07:52:54;18.78;75.43
71047;SHT31;58703;48.978;8.982;2022-09-09T07:55:21;18.55;76.08
71047;SHT31;58703;48.978;8.982;2022-09-09T07:57:49;18.49;75.96
71047;SHT31;58703;48.978;8.982;2022-09-09T08:00:15;18.48;75.85
71047;SHT31;58703;48.978;8.982;2022-09-09T08:02:40;18.56;76.95
71047;SHT31;58703;48.978;8.982;2022-09-09T08:05:06;19.07;76.82
71047;SHT31;58703;48.978;8.982;2022-09-09T08:07:32;19.57;75.54
71047;SHT31;58703;48.978;8.982;2022-09-09T08:09:58;20.10;74.20
71047;SHT31;58703;48.978;8.982;2022-09-09T08:12:24;20.39;71.96
71047;SHT31;58703;48.978;8.982;2022-09-09T08:14:49;20.75;69.30
71047;SHT31;58703;48.978;8.982;2022-09-09T08:17:17;21.27;66.38
71047;SHT31;58703;48.978;8.982;2022-09-09T08:19:43;21.41;66.39
71047;SHT31;58703;48.978;8.982;2022-09-09T08:22:09;21.50;62.71
71047;SHT31;58703;48.978;8.982;2022-09-09T08:24:35;21.98;62.82
71047;SHT31;58703;48.978;8.982;2022-09-09T08:27:01;22.30;60.98
71047;SHT31;58703;48.978;8.982;2022-09-09T08:29:27;23.11;64.45
71047;SHT31;58703;48.978;8.982;2022-09-09T08:31:55;21.53;62.69
71047;SHT31;58703;48.978;8.982;2022-09-09T08:34:23;21.35;62.08
71047;SHT31;58703;48.978;8.982;2022-09-09T08:36:50;21.34;62.70
71047;SHT31;58703;48.978;8.982;2022-09-09T08:39:18;21.33;62.86
71047;SHT31;58703;48.978;8.982;2022-09-09T08:50:34;21.37;62.30
71047;SHT31;58703;48.978;8.982;2022-09-09T08:55:48;21.53;60.60
71047;SHT31;58703;48.978;8.982;2022-09-09T08:58:54;21.55;60.70
71047;SHT31;58703;48.978;8.982;2022-09-09T09:01:33;21.37;60.55
71047;SHT31;58703;48.978;8.982;2022-09-09T09:12:21;21.47;58.64
71047;SHT31;58703;48.978;8.982;2022-09-09T09:14:48;21.78;56.86
71047;SHT31;58703;48.978;8.982;2022-09-09T09:17:17;22.45;54.49
71047;SHT31;58703;48.978;8.982;2022-09-09T09:19:45;22.67;54.11
71047;SHT31;58703;48.978;8.982;2022-09-09T09:25:12;21.79;61.84
71047;SHT31;58703;48.978;8.982;2022-09-09T09:28:02;21.73;61.13
71047;SHT31;58703;48.978;8.982;2022-09-09T09:30:36;21.38;62.71
71047;SHT31;58703;48.978;8.982;2022-09-09T09:36:06;20.73;65.04
71047;SHT31;58703;48.978;8.982;2022-09-09T09:38:34;20.68;64.09
71047;SHT31;58703;48.978;8.982;2022-09-09T09:41:00;20.46;64.38
71047;SHT31;58703;48.978;8.982;2022-09-09T09:43:32;20.41;63.70
71047;SHT31;58703;48.978;8.982;2022-09-09T09:45:58;20.21;62.77
71047;SHT31;58703;48.978;8.982;2022-09-09T09:48:26;20.29;62.70
71047;SHT31;58703;48.978;8.982;2022-09-09T09:50:57;19.78;62.46
71047;SHT31;58703;48.978;8.982;2022-09-09T09:53:34;19.58;64.56
71047;SHT31;58703;48.978;8.982;2022-09-09T09:56:04;19.51;64.71
71047;SHT31;58703;48.978;8.982;2022-09-09T09:58:52;19.56;64.22
71047;SHT31;58703;48.978;8.982;2022-09-09T10:01:29;19.40;66.25
71047;SHT31;58703;48.978;8.982;2022-09-09T10:04:17;19.46;66.34
71047;SHT31;58703;48.978;8.982;2022-09-09T10:06:44;19.46;67.01
71047;SHT31;58703;48.978;8.982;2022-09-09T10:09:28;19.24;69.70
71047;SHT31;58703;48.978;8.982;2022-09-09T10:39:50;23.00;51.44
71047;SHT31;58703;48.978;8.982;2022-09-09T10:42:27;22.10;49.83
71047;SHT31;58703;48.978;8.982;2022-09-09T10:53:36;22.55;50.78
71047;SHT31;58703;48.978;8.982;2022-09-09T10:56:16;22.22;52.20
71047;SHT31;58703;48.978;8.982;2022-09-09T10:58:53;20.82;54.98
71047;SHT31;58703;48.978;8.982;2022-09-09T11:01:25;20.57;55.98
71047;SHT31;58703;48.978;8.982;2022-09-09T11:04:00;20.87;55.97
71047;SHT31;58703;48.978;8.982;2022-09-09T11:06:39;20.48;55.26
71047;SHT31;58703;48.978;8.982;2022-09-09T11:09:05;20.52;56.20
71047;SHT31;58703;48.978;8.982;2022-09-09T11:11:39;20.41;57.21
71047;SHT31;58703;48.978;8.982;2022-09-09T11:14:33;20.42;58.11
71047;SHT31;58703;48.978;8.982;2022-09-09T11:17:13;20.02;58.81
71047;SHT31;58703;48.978;8.982;2022-09-09T11:19:44;19.54;59.54
71047;SHT31;58703;48.978;8.982;2022-09-09T11:25:01;18.15;67.37
71047;SHT31;58703;48.978;8.982;2022-09-09T11:41:08;17.31;74.98
71047;SHT31;58703;48.978;8.982;2022-09-09T11:43:43;17.35;74.38
71047;SHT31;58703;48.978;8.982;2022-09-09T11:46:10;17.46;74.58
71047;SHT31;58703;48.978;8.982;2022-09-09T11:48:41;17.42;73.68
71047;SHT31;58703;48.978;8.982;2022-09-09T11:53:54;17.21;76.38
71047;SHT31;58703;48.978;8.982;2022-09-09T11:56:34;16.96;77.11
71047;SHT31;58703;48.978;8.982;2022-09-09T11:59:29;17.11;79.42
71047;SHT31;58703;48.978;8.982;2022-09-09T12:01:59;17.04;77.56
71047;SHT31;58703;48.978;8.982;2022-09-09T12:04:34;17.40;76.23
71047;SHT31;58703;48.978;8.982;2022-09-09T12:07:05;18.15;75.16
71047;SHT31;58703;48.978;8.982;2022-09-09T12:09:52;18.92;74.19
71047;SHT31;58703;48.978;8.982;2022-09-09T12:15:19;19.43;70.28
71047;SHT31;58703;48.978;8.982;2022-09-09T12:17:52;19.66;68.62
71047;SHT31;58703;48.978;8.982;2022-09-09T12:20:34;18.86;68.41
71047;SHT31;58703;48.978;8.982;2022-09-09T12:23:45;19.43;69.50
71047;SHT31;58703;48.978;8.982;2022-09-09T12:26:32;19.88;67.63
71047;SHT31;58703;48.978;8.982;2022-09-09T12:37:37;21.69;60.61
71047;SHT31;58703;48.978;8.982;2022-09-09T12:40:06;20.96;60.35
71047;SHT31;58703;48.978;8.982;2022-09-09T12:42:32;21.34;59.24
71047;SHT31;58703;48.978;8.982;2022-09-09T12:45:15;21.22;58.41
71047;SHT31;58703;48.978;8.982;2022-09-09T12:47:51;21.37;58.78
71047;SHT31;58703;48.978;8.982;2022-09-09T12:50:21;21.55;58.69
71047;SHT31;58703;48.978;8.982;2022-09-09T12:52:49;21.54;58.89
71047;SHT31;58703;48.978;8.982;2022-09-09T12:55:23;21.19;58.58
71047;SHT31;58703;48.978;8.982;2022-09-09T12:57:51;21.71;57.41
71047;SHT31;58703;48.978;8.982;2022-09-09T13:00:20;21.99;56.57
71047;SHT31;58703;48.978;8.982;2022-09-09T13:02:59;21.82;55.88
71047;SHT31;58703;48.978;8.982;2022-09-09T13:05:36;22.05;55.89
71047;SHT31;58703;48.978;8.982;2022-09-09T13:08:08;21.91;56.12
71047;SHT31;58703;48.978;8.982;2022-09-09T13:10:43;22.46;55.50
71047;SHT31;58703;48.978;8.982;2022-09-09T13:13:17;22.05;55.29
71047;SHT31;58703;48.978;8.982;2022-09-09T13:15:50;22.40;53.91
71047;SHT31;58703;48.978;8.982;2022-09-09T13:18:21;21.71;55.64
71047;SHT31;58703;48.978;8.982;2022-09-09T13:20:48;21.66;55.71
71047;SHT31;58703;48.978;8.982;2022-09-09T13:23:15;21.44;55.50
71047;SHT31;58703;48.978;8.982;2022-09-09T13:25:53;21.64;55.56
71047;SHT31;58703;48.978;8.982;2022-09-09T13:28:28;21.92;54.33
71047;SHT31;58703;48.978;8.982;2022-09-09T13:30:59;22.66;52.87
71047;SHT31;58703;48.978;8.982;2022-09-09T13:33:36;22.87;50.35
71047;SHT31;58703;48.978;8.982;2022-09-09T13:38:33;21.69;53.70
71047;SHT31;58703;48.978;8.982;2022-09-09T13:41:02;21.81;54.06
71047;SHT31;58703;48.978;8.982;2022-09-09T13:43:34;21.68;54.80
71047;SHT31;58703;48.978;8.982;2022-09-09T13:46:06;22.94;51.73
71047;SHT31;58703;48.978;8.982;2022-09-09T13:49:38;23.04;51.46
71047;SHT31;58703;48.978;8.982;2022-09-09T13:51:50;22.60;52.93
71047;SHT31;58703;48.978;8.982;2022-09-09T13:54:18;22.94;52.18
71047;SHT31;58703;48.978;8.982;2022-09-09T13:56:44;22.37;53.00
71047;SHT31;58703;48.978;8.982;2022-09-09T13:59:15;22.04;50.41
71047;SHT31;58703;48.978;8.982;2022-09-09T14:01:41;21.74;48.46
71047;SHT31;58703;48.978;8.982;2022-09-09T14:04:08;21.58;49.14
71047;SHT31;58703;48.978;8.982;2022-09-09T14:06:38;21.50;50.69
71047;SHT31;58703;48.978;8.982;2022-09-09T14:09:06;21.74;50.57
71047;SHT31;58703;48.978;8.982;2022-09-09T14:11:32;21.50;51.55
71047;SHT31;58703;48.978;8.982;2022-09-09T14:13:58;21.20;51.97
71047;SHT31;58703;48.978;8.982;2022-09-09T14:16:24;21.14;52.61
71047;SHT31;58703;48.978;8.982;2022-09-09T14:18:53;20.96;52.90
71047;SHT31;58703;48.978;8.982;2022-09-09T14:21:21;21.10;53.57
71047;SHT31;58703;48.978;8.982;2022-09-09T14:23:47;21.13;53.97
71047;SHT31;58703;48.978;8.982;2022-09-09T14:26:14;20.87;60.38
71047;SHT31;58703;48.978;8.982;2022-09-09T14:28:40;19.80;70.42
71047;SHT31;58703;48.978;8.982;2022-09-09T14:31:06;18.86;68.80
71047;SHT31;58703;48.978;8.982;2022-09-09T14:33:32;18.81;67.40
71047;SHT31;58703;48.978;8.982;2022-09-09T14:36:01;18.72;72.26
71047;SHT31;58703;48.978;8.982;2022-09-09T14:38:31;18.66;74.60
71047;SHT31;58703;48.978;8.982;2022-09-09T14:40:59;18.25;78.99
71047;SHT31;58703;48.978;8.982;2022-09-09T14:43:25;18.14;79.93
71047;SHT31;58703;48.978;8.982;2022-09-09T14:45:54;18.20;83.52
71047;SHT31;58703;48.978;8.982;2022-09-09T14:48:20;18.38;80.52
71047;SHT31;58703;48.978;8.982;2022-09-09T14:50:46;19.15;66.01
71047;SHT31;58703;48.978;8.982;2022-09-09T14:53:12;19.31;65.03
71047;SHT31;58703;48.978;8.982;2022-09-09T14:55:38;19.26;64.52
71047;SHT31;58703;48.978;8.982;2022-09-09T14:58:04;19.36;62.26
71047;SHT31;58703;48.978;8.982;2022-09-09T15:00:31;19.50;59.36
71047;SHT31;58703;48.978;8.982;2022-09-09T15:02:57;19.56;61.59
71047;SHT31;58703;48.978;8.982;2022-09-09T15:05:23;19.67;60.58
71047;SHT31;58703;48.978;8.982;2022-09-09T15:07:50;19.75;60.88
71047;SHT31;58703;48.978;8.982;2022-09-09T15:10:15;20.04;58.55
71047;SHT31;58703;48.978;8.982;2022-09-09T15:12:43;20.15;58.94
71047;SHT31;58703;48.978;8.982;2022-09-09T15:15:09;21.73;54.59
71047;SHT31;58703;48.978;8.982;2022-09-09T15:17:35;21.04;57.59
71047;SHT31;58703;48.978;8.982;2022-09-09T15:20:03;20.84;59.88
71047;SHT31;58703;48.978;8.982;2022-09-09T15:22:31;20.73;56.07
71047;SHT31;58703;48.978;8.982;2022-09-09T15:24:57;22.57;57.22
71047;SHT31;58703;48.978;8.982;2022-09-09T15:27:23;24.13;50.39
71047;SHT31;58703;48.978;8.982;2022-09-09T15:29:49;24.49;49.37
71047;SHT31;58703;48.978;8.982;2022-09-09T15:32:17;22.35;54.57
71047;SHT31;58703;48.978;8.982;2022-09-09T15:34:43;21.37;55.90
71047;SHT31;58703;48.978;8.982;2022-09-09T15:37:12;20.87;55.90
71047;SHT31;58703;48.978;8.982;2022-09-09T15:39:41;20.66;57.24
71047;SHT31;58703;48.978;8.982;2022-09-09T15:42:07;20.49;57.48
71047;SHT31;58703;48.978;8.982;2022-09-09T15:44:41;20.39;58.01
71047;SHT31;58703;48.978;8.982;2022-09-09T15:47:10;20.25;58.83
71047;SHT31;58703;48.978;8.982;2022-09-09T15:49:37;20.19;57.53
71047;SHT31;58703;48.978;8.982;2022-09-09T15:52:04;20.10;59.00
71047;SHT31;58703;48.978;8.982;2022-09-09T15:54:35;20.17;58.33
71047;SHT31;58703;48.978;8.982;2022-09-09T15:57:05;20.04;59.29
71047;SHT31;58703;48.978;8.982;2022-09-09T15:59:33;19.98;59.59
71047;SHT31;58703;48.978;8.982;2022-09-09T16:02:04;19.98;59.49
71047;SHT31;58703;48.978;8.982;2022-09-09T16:04:30;18.51;72.78
71047;SHT31;58703;48.978;8.982;2022-09-09T16:06:58;17.23;78.41
71047;SHT31;58703;48.978;8.982;2022-09-09T16:09:26;17.65;73.45
71047;SHT31;58703;48.978;8.982;2022-09-09T16:11:54;17.43;75.97
71047;SHT31;58703;48.978;8.982;2022-09-09T16:14:21;17.26;76.19
71047;SHT31;58703;48.978;8.982;2022-09-09T16:16:47;16.78;79.14
71047;SHT31;58703;48.978;8.982;2022-09-09T16:19:13;16.24;76.91
71047;SHT31;58703;48.978;8.982;2022-09-09T16:21:46;15.75;79.45
71047;SHT31;58703;48.978;8.982;2022-09-09T16:24:15;15.56;80.91
71047;SHT31;58703;48.978;8.982;2022-09-09T16:26:43;15.49;80.72
71047;SHT31;58703;48.978;8.982;2022-09-09T16:29:12;15.27;84.28
71047;SHT31;58703;48.978;8.982;2022-09-09T16:31:38;15.48;82.53
71047;SHT31;58703;48.978;8.982;2022-09-09T16:34:04;16.06;80.94
71047;SHT31;58703;48.978;8.982;2022-09-09T16:36:32;15.86;80.24
71047;SHT31;58703;48.978;8.982;2022-09-09T16:39:08;15.61;80.76
71047;SHT31;58703;48.978;8.982;2022-09-09T16:41:36;15.32;85.04
71047;SHT31;58703;48.978;8.982;2022-09-09T16:44:05;15.23;85.89
71047;SHT31;58703;48.978;8.982;2022-09-09T16:46:35;15.17;86.08
71047;SHT31;58703;48.978;8.982;2022-09-09T16:49:02;15.20;86.95
71047;SHT31;58703;48.978;8.982;2022-09-09T16:51:31;15.62;84.62
71047;SHT31;58703;48.978;8.982;2022-09-09T16:54:02;15.75;82.71
71047;SHT31;58703;48.978;8.982;2022-09-09T16:56:30;15.83;84.46
71047;SHT31;58703;48.978;8.982;2022-09-09T16:58:59;16.37;81.55
71047;SHT31;58703;48.978;8.982;2022-09-09T17:01:27;17.32;78.67
71047;SHT31;58703;48.978;8.982;2022-09-09T17:03:57;16.81;77.56
71047;SHT31;58703;48.978;8.982;2022-09-09T17:06:24;16.12;79.20
71047;SHT31;58703;48.978;8.982;2022-09-09T17:08:55;15.93;79.67
71047;SHT31;58703;48.978;8.982;2022-09-09T17:11:21;15.75;81.06
71047;SHT31;58703;48.978;8.982;2022-09-09T17:13:47;15.68;82.60
71047;SHT31;58703;48.978;8.982;2022-09-09T17:16:16;15.55;84.19
71047;SHT31;58703;48.978;8.982;2022-09-09T17:18:42;15.68;81.10
71047;SHT31;58703;48.978;8.982;2022-09-09T17:21:10;15.59;82.60
71047;SHT31;58703;48.978;8.982;2022-09-09T17:23:36;15.62;81.27
71047;SHT31;58703;48.978;8.982;2022-09-09T17:26:05;15.73;80.41
71047;SHT31;58703;48.978;8.982;2022-09-09T17:28:34;15.88;79.57
71047;SHT31;58703;48.978;8.982;2022-09-09T17:31:00;16.10;78.92
71047;SHT31;58703;48.978;8.982;2022-09-09T17:33:28;15.89;80.25
71047;SHT31;58703;48.978;8.982;2022-09-09T17:36:17;15.89;79.81
71047;SHT31;58703;48.978;8.982;2022-09-09T17:38:43;15.92;80.66
71047;SHT31;58703;48.978;8.982;2022-09-09T17:41:16;16.00;79.23
71047;SHT31;58703;48.978;8.982;2022-09-09T17:43:43;16.09;79.47
71047;SHT31;58703;48.978;8.982;2022-09-09T17:46:14;16.12;79.66
71047;SHT31;58703;48.978;8.982;2022-09-09T17:48:41;16.31;77.95
71047;SHT31;58703;48.978;8.982;2022-09-09T17:51:09;16.03;79.93
71047;SHT31;58703;48.978;8.982;2022-09-09T17:53:44;15.90;80.98
71047;SHT31;58703;48.978;8.982;2022-09-09T17:56:12;15.73;81.68
71047;SHT31;58703;48.978;8.982;2022-09-09T17:58:38;15.61;82.35
71047;SHT31;58703;48.978;8.982;2022-09-09T18:01:10;15.59;82.07
71047;SHT31;58703;48.978;8.982;2022-09-09T18:03:38;15.63;83.51
71047;SHT31;58703;48.978;8.982;2022-09-09T18:06:07;15.42;84.54
71047;SHT31;58703;48.978;8.982;2022-09-09T18:08:33;15.28;84.62
71047;SHT31;58703;48.978;8.982;2022-09-09T18:10:59;15.23;85.44